createdAt,value
2023-05-15T00:01:25.047Z,2.92
2023-05-15T00:03:52.994Z,2.65
2023-05-15T00:06:20.936Z,2.47
2023-05-15T00:08:48.392Z,3.65
2023-05-15T00:11:15.968Z,3.70
2023-05-15T00:13:44.181Z,3.08
2023-05-15T00:16:11.835Z,2.88
2023-05-15T00:18:39.451Z,2.72
2023-05-15T00:21:07.000Z,2.90
2023-05-15T00:23:35.127Z,3.55
2023-05-15T00:26:03.006Z,2.45
2023-05-15T00:28:31.243Z,2.42
2023-05-15T00:30:59.192Z,3.05
2023-05-15T00:33:27.035Z,2.85
2023-05-15T00:35:54.853Z,2.60
2023-05-15T00:38:22.249Z,3.28
2023-05-15T00:40:50.720Z,3.00
2023-05-15T00:43:20.062Z,3.08
2023-05-15T00:45:48.021Z,2.83
2023-05-15T00:48:16.602Z,3.30
2023-05-15T00:50:44.691Z,3.33
2023-05-15T00:53:12.407Z,3.95
2023-05-15T00:55:41.808Z,3.55
2023-05-15T00:58:10.920Z,2.70
2023-05-15T01:00:39.116Z,2.80
2023-05-15T01:03:07.105Z,3.17
2023-05-15T01:05:35.039Z,2.38
2023-05-15T01:08:31.625Z,3.17
2023-05-15T01:11:00.366Z,2.88
2023-05-15T01:13:27.848Z,3.10
2023-05-15T01:15:55.465Z,3.45
2023-05-15T01:18:23.357Z,4.30
2023-05-15T01:21:10.156Z,3.70
2023-05-15T01:23:56.419Z,2.78
2023-05-15T01:26:24.363Z,3.25
2023-05-15T01:29:16.737Z,3.30
2023-05-15T01:31:50.390Z,3.17
2023-05-15T01:34:19.986Z,2.67
2023-05-15T01:36:53.458Z,2.67
2023-05-15T01:39:23.787Z,2.75
2023-05-15T01:41:51.676Z,2.80
2023-05-15T01:44:29.240Z,3.85
2023-05-15T01:47:00.029Z,2.55
2023-05-15T01:49:29.252Z,3.03
2023-05-15T01:52:05.258Z,3.00
2023-05-15T01:54:34.351Z,4.65
2023-05-15T01:57:02.826Z,5.50
2023-05-15T01:59:30.921Z,3.00
2023-05-15T02:01:59.221Z,3.08
2023-05-15T02:04:27.246Z,3.38
2023-05-15T02:06:55.899Z,2.58
2023-05-15T02:09:24.794Z,2.67
2023-05-15T02:11:52.594Z,2.35
2023-05-15T02:14:21.256Z,2.60
2023-05-15T02:16:49.026Z,2.90
2023-05-15T02:19:17.047Z,2.40
2023-05-15T02:21:44.928Z,2.55
2023-05-15T02:24:14.040Z,2.83
2023-05-15T02:26:51.341Z,2.90
2023-05-15T02:29:23.622Z,3.40
2023-05-15T02:32:24.961Z,2.30
2023-05-15T02:35:04.119Z,2.42
2023-05-15T02:37:34.167Z,1.98
2023-05-15T02:40:07.081Z,2.28
2023-05-15T02:42:36.163Z,2.35
2023-05-15T02:45:05.510Z,2.70
2023-05-15T02:47:34.564Z,2.70
2023-05-15T02:50:03.237Z,2.20
2023-05-15T02:52:35.245Z,2.03
2023-05-15T02:55:03.161Z,3.08
2023-05-15T02:57:31.101Z,2.30
2023-05-15T02:59:58.964Z,2.30
2023-05-15T03:02:26.837Z,2.55
2023-05-15T03:04:54.772Z,2.20
2023-05-15T03:07:22.249Z,2.08
2023-05-15T03:09:49.762Z,2.00
2023-05-15T03:12:17.727Z,2.47
2023-05-15T03:14:45.537Z,2.65
2023-05-15T03:17:16.124Z,2.63
2023-05-15T03:19:44.312Z,4.60
2023-05-15T03:22:11.789Z,3.00
2023-05-15T03:24:39.548Z,1.85
2023-05-15T03:27:07.612Z,2.60
2023-05-15T03:29:35.087Z,3.17
2023-05-15T03:32:02.985Z,2.92
2023-05-15T03:34:30.399Z,2.67
2023-05-15T03:36:58.260Z,2.55
2023-05-15T03:39:26.163Z,2.15
2023-05-15T03:41:53.624Z,2.35
2023-05-15T03:44:23.506Z,2.53
2023-05-15T03:46:51.465Z,2.30
2023-05-15T03:49:18.950Z,2.83
2023-05-15T03:51:46.488Z,2.13
2023-05-15T03:54:14.546Z,3.00
2023-05-15T03:56:42.149Z,2.08
2023-05-15T03:59:09.919Z,2.92
2023-05-15T04:01:44.270Z,3.28
2023-05-15T04:04:23.134Z,3.13
2023-05-15T04:06:51.309Z,3.15
2023-05-15T04:09:18.791Z,2.95
2023-05-15T04:11:46.761Z,3.63
2023-05-15T04:14:14.378Z,3.50
2023-05-15T04:16:41.893Z,2.40
2023-05-15T04:19:09.544Z,2.80
2023-05-15T04:21:37.227Z,2.95
2023-05-15T04:24:05.389Z,2.60
2023-05-15T04:26:33.444Z,3.15
2023-05-15T04:29:04.382Z,3.33
2023-05-15T04:31:32.670Z,3.13
2023-05-15T04:34:00.477Z,2.65
2023-05-15T04:36:28.196Z,2.75
2023-05-15T04:38:56.434Z,2.72
2023-05-15T04:41:23.970Z,2.83
2023-05-15T04:43:51.638Z,2.65
2023-05-15T04:46:19.229Z,3.20
2023-05-15T04:48:47.127Z,2.90
2023-05-15T04:51:14.921Z,3.22
2023-05-15T04:53:42.781Z,3.45
2023-05-15T04:56:10.162Z,3.33
2023-05-15T04:58:38.055Z,3.08
2023-05-15T05:01:05.536Z,2.30
2023-05-15T05:03:33.149Z,3.28
2023-05-15T05:06:00.835Z,3.22
2023-05-15T05:08:28.440Z,2.67
2023-05-15T05:11:00.129Z,2.78
2023-05-15T05:15:55.353Z,2.40
2023-05-15T05:18:22.904Z,2.40
2023-05-15T05:20:50.678Z,3.20
2023-05-15T05:23:18.329Z,2.92
2023-05-15T05:25:45.845Z,2.47
2023-05-15T05:28:13.488Z,3.03
2023-05-15T05:30:48.175Z,3.65
2023-05-15T05:33:15.844Z,2.90
2023-05-15T05:35:43.394Z,2.80
2023-05-15T05:38:10.938Z,3.63
2023-05-15T05:40:38.486Z,3.10
2023-05-15T05:43:06.369Z,3.03
2023-05-15T05:45:34.045Z,2.67
2023-05-15T05:48:01.650Z,2.38
2023-05-15T05:50:29.327Z,2.70
2023-05-15T05:52:57.268Z,3.08
2023-05-15T05:55:25.613Z,2.50
2023-05-15T05:57:53.171Z,2.47
2023-05-15T06:00:21.066Z,2.75
2023-05-15T06:02:49.172Z,3.80
2023-05-15T06:05:17.172Z,2.42
2023-05-15T06:07:45.018Z,2.60
2023-05-15T06:10:13.230Z,2.92
2023-05-15T06:12:40.845Z,2.65
2023-05-15T06:15:08.648Z,2.10
2023-05-15T06:17:36.711Z,2.03
2023-05-15T06:20:08.913Z,2.85
2023-05-15T06:22:37.054Z,2.97
2023-05-15T06:25:05.958Z,3.05
2023-05-15T06:27:34.299Z,2.72
2023-05-15T06:30:01.925Z,2.35
2023-05-15T06:32:34.619Z,3.33
2023-05-15T06:35:03.066Z,3.58
2023-05-15T06:37:33.130Z,4.30
2023-05-15T06:40:01.241Z,3.17
2023-05-15T06:42:28.866Z,2.25
2023-05-15T06:44:57.577Z,2.20
2023-05-15T06:47:25.432Z,2.92
2023-05-15T06:49:54.521Z,2.95
2023-05-15T06:52:22.063Z,3.88
2023-05-15T06:54:50.037Z,2.63
2023-05-15T06:57:17.854Z,2.22
2023-05-15T06:59:45.395Z,1.60
2023-05-15T07:02:13.007Z,2.47
2023-05-15T07:04:41.020Z,2.63
2023-05-15T07:07:08.674Z,2.13
2023-05-15T07:09:36.265Z,2.10
2023-05-15T07:12:04.107Z,1.73
2023-05-15T07:14:31.610Z,1.85
2023-05-15T07:16:59.184Z,2.58
2023-05-15T07:19:26.903Z,1.95
2023-05-15T07:21:54.875Z,2.30
2023-05-15T07:24:22.332Z,1.58
2023-05-15T07:26:58.218Z,1.55
2023-05-15T07:29:26.629Z,1.65
2023-05-15T07:31:54.272Z,2.13
2023-05-15T07:34:22.034Z,1.77
2023-05-15T07:36:49.600Z,1.80
2023-05-15T07:39:17.174Z,1.23
2023-05-15T07:41:46.996Z,1.65
2023-05-15T07:44:14.570Z,1.10
2023-05-15T07:46:42.242Z,1.30
2023-05-15T07:49:09.784Z,1.20
2023-05-15T07:51:37.318Z,1.83
2023-05-15T07:54:04.948Z,0.98
2023-05-15T07:56:33.217Z,1.33
2023-05-15T07:59:00.826Z,1.30
2023-05-15T08:01:30.045Z,1.27
2023-05-15T08:03:58.532Z,0.82
2023-05-15T08:06:26.339Z,1.42
2023-05-15T08:08:53.833Z,1.30
2023-05-15T08:11:22.060Z,1.90
2023-05-15T08:13:49.760Z,1.38
2023-05-15T08:16:17.316Z,1.30
2023-05-15T08:18:44.877Z,2.00
2023-05-15T08:21:12.563Z,1.13
2023-05-15T08:23:40.095Z,1.40
2023-05-15T08:26:07.587Z,0.95
2023-05-15T08:28:35.108Z,1.63
2023-05-15T08:31:02.654Z,1.30
2023-05-15T08:33:30.478Z,1.17
2023-05-15T08:35:58.684Z,0.75
2023-05-15T08:38:26.285Z,1.20
2023-05-15T08:40:58.000Z,1.50
2023-05-15T08:43:27.054Z,1.25
2023-05-15T08:45:55.580Z,1.48
2023-05-15T08:48:26.047Z,1.10
2023-05-15T08:50:57.757Z,1.45
2023-05-15T08:53:25.886Z,1.10
2023-05-15T08:55:53.431Z,1.10
2023-05-15T08:58:25.881Z,1.20
2023-05-15T09:00:53.560Z,1.00
2023-05-15T09:03:23.436Z,1.30
2023-05-15T09:05:53.246Z,0.90
2023-05-15T09:08:23.839Z,1.02
2023-05-15T09:10:53.362Z,0.90
2023-05-15T09:13:20.966Z,1.05
2023-05-15T09:15:48.612Z,0.95
2023-05-15T09:18:17.124Z,0.60
2023-05-15T09:20:44.712Z,0.98
2023-05-15T09:23:26.567Z,0.73
2023-05-15T09:25:56.815Z,0.80
2023-05-15T09:28:32.864Z,1.60
2023-05-15T09:31:05.225Z,1.25
2023-05-15T09:33:35.308Z,0.90
2023-05-15T09:36:04.636Z,0.88
2023-05-15T09:38:42.979Z,0.90
2023-05-15T09:41:11.486Z,0.75
2023-05-15T09:43:41.016Z,1.00
2023-05-15T09:46:09.620Z,1.58
2023-05-15T09:48:37.400Z,1.92
2023-05-15T09:51:07.731Z,1.50
2023-05-15T09:53:35.794Z,0.85
2023-05-15T09:56:03.537Z,0.90
2023-05-15T09:58:31.662Z,1.30
2023-05-15T10:01:01.152Z,1.15
2023-05-15T10:03:28.834Z,1.25
2023-05-15T10:06:01.080Z,1.27
2023-05-15T10:08:29.239Z,0.80
2023-05-15T10:11:00.698Z,1.58
2023-05-15T10:13:31.516Z,1.35
2023-05-15T10:15:59.859Z,1.35
2023-05-15T10:18:31.778Z,1.20
2023-05-15T10:21:04.125Z,1.45
2023-05-15T10:23:34.161Z,0.93
2023-05-15T10:26:06.680Z,0.95
2023-05-15T10:28:36.316Z,0.98
2023-05-15T10:31:05.801Z,0.90
2023-05-15T10:33:35.997Z,0.93
2023-05-15T10:36:04.520Z,1.15
2023-05-15T10:38:33.029Z,0.80
2023-05-15T10:41:15.894Z,0.82
2023-05-15T10:43:45.873Z,1.30
2023-05-15T10:46:14.924Z,1.25
2023-05-15T10:48:43.511Z,1.20
2023-05-15T10:51:28.347Z,1.42
2023-05-15T10:53:56.883Z,1.10
2023-05-15T10:56:30.971Z,1.50
2023-05-15T10:59:04.615Z,1.17
2023-05-15T11:01:33.894Z,0.98
2023-05-15T11:04:15.726Z,1.40
2023-05-15T11:06:45.659Z,1.05
2023-05-15T11:09:27.485Z,1.10
2023-05-15T11:12:00.403Z,1.00
2023-05-15T11:14:39.408Z,1.08
2023-05-15T11:17:11.898Z,1.30
2023-05-15T11:19:49.978Z,1.83
2023-05-15T11:22:20.100Z,1.63
2023-05-15T11:24:52.233Z,1.42
2023-05-15T11:27:39.251Z,1.45
2023-05-15T11:30:15.651Z,1.40
2023-05-15T11:33:08.927Z,1.05
2023-05-15T11:35:47.989Z,1.17
2023-05-15T11:38:24.718Z,1.20
2023-05-15T11:40:57.023Z,1.27
2023-05-15T11:43:36.058Z,1.27
2023-05-15T11:46:03.885Z,1.52
2023-05-15T11:48:35.795Z,1.05
2023-05-15T11:51:04.431Z,1.23
2023-05-15T11:53:33.420Z,0.90
2023-05-15T11:56:01.149Z,1.95
2023-05-15T11:58:28.707Z,1.67
2023-05-15T12:00:58.082Z,1.00
2023-05-15T12:03:27.923Z,0.98
2023-05-15T12:05:59.677Z,1.33
2023-05-15T12:08:38.327Z,1.58
2023-05-15T12:11:06.288Z,1.08
2023-05-15T12:13:34.782Z,0.88
2023-05-15T12:16:05.946Z,1.00
2023-05-15T12:18:34.422Z,1.38
2023-05-15T12:21:02.034Z,1.33
2023-05-15T12:23:29.595Z,1.50
2023-05-15T12:26:01.591Z,1.20
2023-05-15T12:28:30.706Z,1.33
2023-05-15T12:30:59.042Z,1.20
2023-05-15T12:33:26.777Z,1.83
2023-05-15T12:35:59.157Z,1.20
2023-05-15T12:38:29.198Z,1.10
2023-05-15T12:40:57.962Z,1.33
2023-05-15T12:43:26.561Z,1.58
2023-05-15T12:45:55.794Z,1.50
2023-05-15T12:48:28.951Z,1.10
2023-05-15T12:50:56.805Z,0.88
2023-05-15T12:53:24.360Z,1.13
2023-05-15T12:55:51.969Z,1.00
2023-05-15T12:58:20.497Z,0.95
2023-05-15T13:00:49.001Z,1.70
2023-05-15T13:03:20.562Z,1.20
2023-05-15T13:05:48.230Z,1.20
2023-05-15T13:08:17.629Z,0.93
2023-05-15T13:10:46.547Z,1.10
2023-05-15T13:13:14.327Z,1.20
2023-05-15T13:15:45.571Z,1.30
2023-05-15T13:18:16.179Z,1.30
2023-05-15T13:20:48.576Z,1.10
2023-05-15T13:23:21.219Z,1.30
2023-05-15T13:25:48.780Z,1.10
2023-05-15T13:28:16.250Z,1.05
2023-05-15T13:30:43.962Z,1.60
2023-05-15T13:33:12.652Z,1.63
2023-05-15T13:35:42.999Z,1.40
2023-05-15T13:38:11.892Z,1.55
2023-05-15T13:40:39.785Z,1.30
2023-05-15T13:43:07.352Z,1.65
2023-05-15T13:45:34.982Z,1.35
2023-05-15T13:48:02.729Z,2.63
2023-05-15T13:50:30.632Z,1.65
2023-05-15T13:52:58.156Z,1.75
2023-05-15T13:55:26.134Z,1.30
2023-05-15T13:57:53.761Z,1.23
2023-05-15T14:00:21.718Z,1.25
2023-05-15T14:02:49.313Z,1.00
2023-05-15T14:05:17.779Z,1.70
2023-05-15T14:07:45.360Z,2.00
2023-05-15T14:10:13.004Z,1.70
2023-05-15T14:12:40.750Z,1.50
2023-05-15T14:15:08.909Z,1.70
2023-05-15T14:17:36.450Z,1.60
2023-05-15T14:20:05.275Z,1.10
2023-05-15T14:22:33.318Z,1.30
2023-05-15T14:25:00.937Z,1.50
2023-05-15T14:27:28.745Z,1.27
2023-05-15T14:29:59.070Z,1.25
2023-05-15T14:32:26.558Z,1.70
2023-05-15T14:34:54.129Z,1.40
2023-05-15T14:37:21.693Z,1.77
2023-05-15T14:39:49.209Z,1.48
2023-05-15T14:42:17.431Z,1.27
2023-05-15T14:44:45.184Z,1.92
2023-05-15T14:47:13.491Z,1.48
2023-05-15T14:49:41.021Z,1.27
2023-05-15T14:52:10.564Z,1.58
2023-05-15T14:54:38.957Z,1.70
2023-05-15T14:57:07.959Z,1.45
2023-05-15T14:59:35.629Z,1.65
2023-05-15T15:02:03.336Z,1.40
2023-05-15T15:04:34.344Z,1.35
2023-05-15T15:09:30.922Z,1.60
2023-05-15T15:11:58.519Z,1.60
2023-05-15T15:14:26.146Z,1.85
2023-05-15T15:16:53.867Z,1.25
2023-05-15T15:19:21.511Z,2.00
2023-05-15T15:21:49.156Z,1.70
2023-05-15T15:24:16.727Z,2.03
2023-05-15T15:26:44.241Z,1.73
2023-05-15T15:29:11.788Z,1.60
2023-05-15T15:31:39.609Z,1.33
2023-05-15T15:34:08.595Z,1.70
2023-05-15T15:36:38.648Z,1.30
2023-05-15T15:39:06.227Z,1.50
2023-05-15T15:41:37.087Z,1.45
2023-05-15T15:44:05.586Z,1.33
2023-05-15T15:46:33.254Z,1.40
2023-05-15T15:49:01.079Z,1.98
2023-05-15T15:51:28.649Z,1.50
2023-05-15T15:53:56.214Z,1.52
2023-05-15T15:56:24.132Z,1.40
2023-05-15T15:58:51.739Z,1.80
2023-05-15T16:01:19.505Z,1.80
2023-05-15T16:03:47.120Z,1.70
2023-05-15T16:06:14.898Z,1.15
2023-05-15T16:08:42.461Z,1.40
2023-05-15T16:11:10.048Z,2.10
2023-05-15T16:13:38.707Z,1.52
2023-05-15T16:16:07.900Z,2.05
2023-05-15T16:18:35.838Z,1.90
2023-05-15T16:21:03.991Z,2.08
2023-05-15T16:23:37.596Z,1.48
2023-05-15T16:26:05.724Z,1.90
2023-05-15T16:28:33.236Z,1.50
2023-05-15T16:31:02.116Z,1.88
2023-05-15T16:33:31.082Z,1.65
2023-05-15T16:35:58.682Z,2.10
2023-05-15T16:38:26.560Z,1.65
2023-05-15T16:40:54.148Z,1.60
2023-05-15T16:43:21.980Z,2.10
2023-05-15T16:45:49.787Z,1.67
2023-05-15T16:48:17.552Z,1.60
2023-05-15T16:50:45.145Z,2.22
2023-05-15T16:53:14.874Z,1.83
2023-05-15T16:55:42.502Z,2.08
2023-05-15T16:58:10.031Z,1.85
2023-05-15T17:00:37.564Z,1.98
2023-05-15T17:03:06.611Z,1.70
2023-05-15T17:05:34.440Z,1.35
2023-05-15T17:08:02.464Z,2.25
2023-05-15T17:10:29.927Z,2.10
2023-05-15T17:12:57.428Z,1.67
2023-05-15T17:15:26.339Z,1.83
2023-05-15T17:17:54.586Z,1.73
2023-05-15T17:20:22.119Z,2.05
2023-05-15T17:22:49.704Z,1.90
2023-05-15T17:25:17.225Z,2.10
2023-05-15T17:27:44.934Z,1.60
2023-05-15T17:30:12.928Z,1.70
2023-05-15T17:32:40.757Z,1.48
2023-05-15T17:35:08.814Z,1.70
2023-05-15T17:37:36.323Z,1.67
2023-05-15T17:40:04.464Z,1.98
2023-05-15T17:42:32.030Z,1.63
2023-05-15T17:45:00.103Z,1.75
2023-05-15T17:47:27.889Z,2.08
2023-05-15T17:49:55.611Z,1.38
2023-05-15T17:52:23.147Z,1.33
2023-05-15T17:54:51.280Z,1.60
2023-05-15T17:57:19.115Z,1.90
2023-05-15T17:59:46.986Z,2.63
2023-05-15T18:02:14.774Z,1.77
2023-05-15T18:04:42.658Z,1.75
2023-05-15T18:07:10.126Z,1.88
2023-05-15T18:09:39.381Z,1.77
2023-05-15T18:12:07.380Z,1.70
2023-05-15T18:14:35.007Z,1.80
2023-05-15T18:17:02.968Z,1.70
2023-05-15T18:19:30.834Z,1.80
2023-05-15T18:22:00.094Z,1.88
2023-05-15T18:24:27.774Z,1.77
2023-05-15T18:26:55.383Z,2.25
2023-05-15T18:29:23.879Z,1.38
2023-05-15T18:31:51.873Z,1.58
2023-05-15T18:34:19.821Z,1.30
2023-05-15T18:36:47.481Z,1.58
2023-05-15T18:39:15.771Z,1.95
2023-05-15T18:41:43.791Z,1.80
2023-05-15T18:44:11.314Z,2.80
2023-05-15T18:46:39.328Z,1.80
2023-05-15T18:49:06.920Z,1.60
2023-05-15T18:51:35.647Z,2.95
2023-05-15T18:54:03.187Z,1.77
2023-05-15T18:56:31.198Z,1.52
2023-05-15T18:58:59.068Z,1.60
2023-05-15T19:01:26.963Z,1.98
2023-05-15T19:03:54.791Z,1.70
2023-05-15T19:06:22.180Z,1.30
2023-05-15T19:08:50.198Z,1.98
2023-05-15T19:11:17.761Z,2.83
2023-05-15T19:13:45.839Z,1.98
2023-05-15T19:16:13.804Z,1.70
2023-05-15T19:18:41.370Z,1.98
2023-05-15T19:21:09.015Z,1.88
2023-05-15T19:23:37.193Z,2.53
2023-05-15T19:26:04.982Z,2.38
2023-05-15T19:28:32.828Z,1.70
2023-05-15T19:31:00.355Z,1.85
2023-05-15T19:33:27.927Z,1.90
2023-05-15T19:35:55.678Z,1.92
2023-05-15T19:38:23.581Z,2.72
2023-05-15T19:40:51.309Z,2.22
2023-05-15T19:43:19.305Z,2.08
2023-05-15T19:45:47.200Z,2.25
2023-05-15T19:48:15.088Z,2.08
2023-05-15T19:50:45.100Z,2.55
2023-05-15T19:53:13.140Z,2.08
2023-05-15T19:55:41.178Z,1.48
2023-05-15T19:58:09.293Z,2.65
2023-05-15T20:00:37.158Z,2.15
2023-05-15T20:03:05.249Z,1.88
2023-05-15T20:05:33.588Z,1.95
2023-05-15T20:08:01.005Z,2.08
2023-05-15T20:10:28.953Z,1.88
2023-05-15T20:12:56.594Z,2.10
2023-05-15T20:15:24.753Z,2.03
2023-05-15T20:17:53.567Z,2.00
2023-05-15T20:20:21.540Z,1.92
2023-05-15T20:22:49.056Z,2.08
2023-05-15T20:25:17.009Z,1.88
2023-05-15T20:27:44.864Z,2.70
2023-05-15T20:30:12.317Z,2.25
2023-05-15T20:32:40.086Z,1.92
2023-05-15T20:35:08.976Z,2.08
2023-05-15T20:37:37.024Z,2.42
2023-05-15T20:40:05.328Z,2.53
2023-05-15T20:42:33.034Z,2.08
2023-05-15T20:45:00.699Z,3.05
2023-05-15T20:47:28.263Z,2.28
2023-05-15T20:49:55.833Z,2.00
2023-05-15T20:52:23.521Z,2.53
2023-05-15T20:54:51.093Z,2.08
2023-05-15T20:57:18.611Z,2.80
2023-05-15T20:59:46.237Z,2.63
2023-05-15T21:02:13.905Z,2.67
2023-05-15T21:04:41.722Z,2.33
2023-05-15T21:07:09.334Z,3.05
2023-05-15T21:09:36.871Z,2.20
2023-05-15T21:12:04.780Z,2.47
2023-05-15T21:14:32.313Z,3.92
2023-05-15T21:16:59.929Z,3.05
2023-05-15T21:19:27.580Z,2.50
2023-05-15T21:21:55.126Z,2.45
2023-05-15T21:24:22.992Z,2.85
2023-05-15T21:26:50.751Z,2.75
2023-05-15T21:29:18.276Z,2.70
2023-05-15T21:31:45.894Z,2.97
2023-05-15T21:34:13.477Z,2.25
2023-05-15T21:36:41.121Z,2.45
2023-05-15T21:39:09.518Z,2.20
2023-05-15T21:41:37.156Z,2.58
2023-05-15T21:44:04.836Z,2.55
2023-05-15T21:46:32.456Z,2.85
2023-05-15T21:49:01.832Z,2.20
2023-05-15T21:51:29.394Z,2.65
2023-05-15T21:53:57.235Z,2.75
2023-05-15T21:56:24.841Z,2.33
2023-05-15T21:58:56.462Z,3.60
2023-05-15T22:03:51.519Z,2.65
2023-05-15T22:06:19.099Z,2.80
2023-05-15T22:08:46.650Z,2.78
2023-05-15T22:11:14.292Z,2.67
2023-05-15T22:13:42.115Z,2.58
2023-05-15T22:16:09.763Z,2.88
2023-05-15T22:18:37.690Z,2.20
2023-05-15T22:21:05.787Z,2.60
2023-05-15T22:23:33.314Z,2.50
2023-05-15T22:26:01.087Z,2.42
2023-05-15T22:28:28.807Z,3.05
2023-05-15T22:30:56.401Z,3.00
2023-05-15T22:33:24.619Z,3.05
2023-05-15T22:35:53.197Z,2.13
2023-05-15T22:38:21.042Z,3.17
2023-05-15T22:40:52.787Z,3.00
2023-05-15T22:43:22.115Z,2.90
2023-05-15T22:45:49.685Z,3.67
2023-05-15T22:48:17.318Z,2.83
2023-05-15T22:50:44.947Z,3.03
2023-05-15T22:53:12.475Z,2.70
2023-05-15T22:55:40.134Z,2.20
2023-05-15T22:58:07.646Z,2.38
2023-05-15T23:00:35.331Z,2.65
2023-05-15T23:03:02.933Z,2.78
2023-05-15T23:05:30.590Z,2.55
2023-05-15T23:07:58.054Z,2.65
2023-05-15T23:10:25.817Z,2.70
2023-05-15T23:12:53.867Z,2.58
2023-05-15T23:15:21.386Z,2.40
2023-05-15T23:17:49.656Z,3.47
2023-05-15T23:20:18.106Z,3.53
2023-05-15T23:22:45.638Z,2.92
2023-05-15T23:25:13.260Z,3.15
2023-05-15T23:27:40.903Z,2.28
2023-05-15T23:30:09.678Z,2.17
2023-05-15T23:32:37.255Z,2.47
2023-05-15T23:35:05.236Z,2.40
2023-05-15T23:37:32.771Z,2.60
2023-05-15T23:40:00.651Z,3.30
2023-05-15T23:42:29.797Z,2.10
2023-05-15T23:44:57.382Z,2.30
2023-05-15T23:47:25.012Z,2.45
2023-05-15T23:49:52.499Z,2.13
2023-05-15T23:52:20.020Z,2.22
2023-05-15T23:54:47.627Z,2.72
2023-05-15T23:57:15.600Z,1.92
2023-05-15T23:59:43.076Z,2.28
